^^
B2 Weather Station Historical Data
Daily Summary for July 9, 2018 Units:  English    Metric   Both
Daily Weekly Monthly Yearly Custom
  High: Low: Average:
Temperature: 90.6 °F 56.6 °F 76.6 °F
Dew Point: 74.0 °F 54.9 °F 67.2 °F
Humidity: 94% 54% 75%
Wind Speed: 13.0mph 0.0mph 2.9mph
Wind Gust: 8.4mph - -
Wind- - WNW
Pressure: 30.21 in 30.08 in -
Precipitation: 0.00 in    
Historical Graphs
 
 
Tabular Data for July 9, 2018
Time Temperature Dew Point Pressure Wind Wind Speed Wind Gust Humidity Rainfall Rate (Hourly) solar
00:04 62.2 °F 59.8 °F 30.19 in Calm     92% 0.00 in 0.00 W/m2
00:09 61.7 °F 58.7 °F 30.19 in Calm     90% 0.00 in 0.00 W/m2
00:14 60.9 °F 57.9 °F 30.19 in Calm     90% 0.00 in 0.00 W/m2
00:19 60.4 °F 57.8 °F 30.19 in Calm     91% 0.00 in 0.00 W/m2
00:24 60.5 °F 58.2 °F 30.19 in Calm     92% 0.00 in 0.00 W/m2
00:29 60.3 °F 58.0 °F 30.19 in Calm     92% 0.00 in 0.00 W/m2
00:34 60.4 °F 58.1 °F 30.19 in Calm     92% 0.00 in 0.00 W/m2
00:39 60.2 °F 57.9 °F 30.19 in Calm     92% 0.00 in 0.00 W/m2
00:44 60.8 °F 58.8 °F 30.19 in Calm     93% 0.00 in 0.00 W/m2
00:49 60.7 °F 58.4 °F 30.20 in Calm     92% 0.00 in 0.00 W/m2
00:54 60.4 °F 58.4 °F 30.20 in Calm     93% 0.00 in 0.00 W/m2
00:59 60.1 °F 57.8 °F 30.20 in Calm     92% 0.00 in 0.00 W/m2
01:04 59.7 °F 57.7 °F 30.20 in Calm     93% 0.00 in 0.00 W/m2
01:09 59.5 °F 57.2 °F 30.20 in Calm     92% 0.00 in 0.00 W/m2
01:14 59.8 °F 57.8 °F 30.20 in Calm     93% 0.00 in 0.00 W/m2
01:19 59.7 °F 57.7 °F 30.20 in Calm     93% 0.00 in 0.00 W/m2
01:24 59.8 °F 57.8 °F 30.20 in Calm     93% 0.00 in 0.00 W/m2
01:29 59.9 °F 57.9 °F 30.20 in Calm     93% 0.00 in 0.00 W/m2
01:34 59.8 °F 57.8 °F 30.20 in Calm     93% 0.00 in 0.00 W/m2
01:39 59.4 °F 57.4 °F 30.20 in Calm     93% 0.00 in 0.00 W/m2
01:44 58.7 °F 56.4 °F 30.20 in Calm     92% 0.00 in 0.00 W/m2
01:49 58.6 °F 56.6 °F 30.20 in Calm     93% 0.00 in 0.00 W/m2
01:54 58.6 °F 56.6 °F 30.20 in Calm     93% 0.00 in 0.00 W/m2
01:59 58.3 °F 56.3 °F 30.20 in Calm     93% 0.00 in 0.00 W/m2
02:04 58.4 °F 56.4 °F 30.20 in Calm     93% 0.00 in 0.00 W/m2
02:09 58.3 °F 56.3 °F 30.20 in Calm     93% 0.00 in 0.00 W/m2
02:14 57.7 °F 55.7 °F 30.20 in Calm     93% 0.00 in 0.00 W/m2
02:19 58.0 °F 56.0 °F 30.19 in Calm     93% 0.00 in 0.00 W/m2
02:24 58.5 °F 56.5 °F 30.20 in Calm     93% 0.00 in 0.00 W/m2
02:29 58.8 °F 57.1 °F 30.20 in Calm     94% 0.00 in 0.00 W/m2
02:34 58.8 °F 57.1 °F 30.20 in Calm     94% 0.00 in 0.00 W/m2
02:39 58.5 °F 56.5 °F 30.19 in Calm     93% 0.00 in 0.00 W/m2
02:44 58.3 °F 56.3 °F 30.20 in Calm     93% 0.00 in 0.00 W/m2
02:49 58.0 °F 56.0 °F 30.20 in Calm     93% 0.00 in 0.00 W/m2
02:54 57.3 °F 55.3 °F 30.19 in Calm     93% 0.00 in 0.00 W/m2
02:59 57.5 °F 55.8 °F 30.19 in Calm     94% 0.00 in 0.00 W/m2
03:04 58.1 °F 56.4 °F 30.19 in Calm     94% 0.00 in 0.00 W/m2
03:09 58.6 °F 56.9 °F 30.19 in Calm     94% 0.00 in 0.00 W/m2
03:14 58.4 °F 56.7 °F 30.19 in Calm     94% 0.00 in 0.00 W/m2
03:19 58.0 °F 56.3 °F 30.19 in Calm     94% 0.00 in 0.00 W/m2
03:24 57.8 °F 55.8 °F 30.19 in Calm     93% 0.00 in 0.00 W/m2
03:29 57.5 °F 55.8 °F 30.19 in Calm     94% 0.00 in 0.00 W/m2
03:34 57.6 °F 55.9 °F 30.19 in Calm     94% 0.00 in 0.00 W/m2
03:39 57.5 °F 55.8 °F 30.19 in Calm     94% 0.00 in 0.00 W/m2
03:44 57.3 °F 55.6 °F 30.19 in Calm     94% 0.00 in 0.00 W/m2
03:49 57.3 °F 55.6 °F 30.19 in Calm     94% 0.00 in 0.00 W/m2
03:54 57.2 °F 55.5 °F 30.19 in Calm     94% 0.00 in 0.00 W/m2
03:59 57.4 °F 55.7 °F 30.19 in Calm     94% 0.00 in 0.00 W/m2
04:04 57.5 °F 55.8 °F 30.19 in Calm     94% 0.00 in 0.00 W/m2
04:09 57.6 °F 55.9 °F 30.19 in Calm     94% 0.00 in 0.00 W/m2
04:14 57.5 °F 55.8 °F 30.19 in Calm     94% 0.00 in 0.00 W/m2
04:19 57.3 °F 55.6 °F 30.19 in Calm     94% 0.00 in 0.00 W/m2
04:24 57.2 °F 55.5 °F 30.19 in Calm     94% 0.00 in 0.00 W/m2
04:29 57.1 °F 55.4 °F 30.19 in Calm     94% 0.00 in 0.00 W/m2
04:34 57.0 °F 55.3 °F 30.19 in Calm     94% 0.00 in 0.00 W/m2
04:39 57.1 °F 55.4 °F 30.19 in Calm     94% 0.00 in 0.00 W/m2
04:44 57.2 °F 55.5 °F 30.19 in Calm     94% 0.00 in 0.00 W/m2
04:49 57.1 °F 55.4 °F 30.19 in Calm     94% 0.00 in 0.00 W/m2
04:54 56.9 °F 55.2 °F 30.19 in Calm     94% 0.00 in 0.00 W/m2
04:59 56.8 °F 55.1 °F 30.19 in Calm     94% 0.00 in 0.00 W/m2
05:04 56.7 °F 55.0 °F 30.19 in Calm     94% 0.00 in 0.00 W/m2
05:09 56.7 °F 55.0 °F 30.19 in Calm     94% 0.00 in 0.00 W/m2
05:14 56.7 °F 55.0 °F 30.19 in Calm     94% 0.00 in 0.00 W/m2
05:19 56.6 °F 54.9 °F 30.19 in Calm     94% 0.00 in 0.00 W/m2
05:24 57.0 °F 55.3 °F 30.19 in Calm     94% 0.00 in 0.00 W/m2
05:29 57.6 °F 55.9 °F 30.19 in Calm     94% 0.00 in 0.00 W/m2
05:34 58.1 °F 56.4 °F 30.20 in Calm     94% 0.00 in 5.00 W/m2
05:39 58.5 °F 56.8 °F 30.20 in Calm     94% 0.00 in 7.00 W/m2
05:44 58.6 °F 56.9 °F 30.20 in Calm     94% 0.00 in 9.00 W/m2
05:49 58.3 °F 56.6 °F 30.20 in Calm     94% 0.00 in 12.00 W/m2
05:54 58.3 °F 56.6 °F 30.20 in Calm     94% 0.00 in 14.00 W/m2
05:59 58.3 °F 56.6 °F 30.20 in Calm     94% 0.00 in 21.00 W/m2
06:04 58.5 °F 56.8 °F 30.20 in Calm     94% 0.00 in 25.00 W/m2
06:09 58.8 °F 57.1 °F 30.20 in Calm     94% 0.00 in 32.00 W/m2
06:14 59.3 °F 57.6 °F 30.20 in Calm     94% 0.00 in 40.00 W/m2
06:19 59.8 °F 58.1 °F 30.20 in Calm     94% 0.00 in 51.00 W/m2
06:24 60.5 °F 58.8 °F 30.20 in Calm     94% 0.00 in 62.00 W/m2
06:29 61.2 °F 59.5 °F 30.20 in Calm     94% 0.00 in 74.00 W/m2
06:34 61.8 °F 60.1 °F 30.20 in Calm     94% 0.00 in 84.00 W/m2
06:39 62.5 °F 60.7 °F 30.20 in Calm     94% 0.00 in 97.00 W/m2
06:44 63.4 °F 61.6 °F 30.20 in Calm     94% 0.00 in 111.00 W/m2
06:49 64.1 °F 62.3 °F 30.20 in Calm     94% 0.00 in 125.00 W/m2
06:54 64.7 °F 62.9 °F 30.20 in Calm     94% 0.00 in 139.00 W/m2
06:59 65.1 °F 63.3 °F 30.21 in Calm     94% 0.00 in 155.00 W/m2
07:04 65.6 °F 63.8 °F 30.21 in Calm     94% 0.00 in 171.00 W/m2
07:09 66.1 °F 64.3 °F 30.21 in Calm     94% 0.00 in 185.00 W/m2
07:14 66.7 °F 64.9 °F 30.21 in Calm     94% 0.00 in 200.00 W/m2
07:19 67.3 °F 65.5 °F 30.21 in Calm     94% 0.00 in 218.00 W/m2
07:24 67.9 °F 66.1 °F 30.21 in Calm     94% 0.00 in 230.00 W/m2
07:29 68.5 °F 66.7 °F 30.21 in Calm     94% 0.00 in 253.00 W/m2
07:34 69.0 °F 67.2 °F 30.21 in Calm     94% 0.00 in 271.00 W/m2
07:39 69.7 °F 67.9 °F 30.21 in Calm     94% 0.00 in 281.00 W/m2
07:44 70.5 °F 68.4 °F 30.21 in Calm     93% 0.00 in 301.00 W/m2
07:49 71.2 °F 68.8 °F 30.21 in Calm     92% 0.00 in 318.00 W/m2
07:54 72.0 °F 69.2 °F 30.21 in Calm     91% 0.00 in 334.00 W/m2
07:59 72.9 °F 69.8 °F 30.21 in Calm     90% 0.00 in 348.00 W/m2
08:04 73.6 °F 69.8 °F 30.21 in Calm     88% 0.00 in 362.00 W/m2
08:09 74.3 °F 69.5 °F 30.21 in Calm     85% 0.00 in 366.00 W/m2
08:14 74.9 °F 69.4 °F 30.21 in Calm     83% 0.00 in 373.00 W/m2
08:19 75.8 °F 70.3 °F 30.21 in Calm     83% 0.00 in 376.00 W/m2
08:24 76.6 °F 70.3 °F 30.21 in Calm     81% 0.00 in 362.00 W/m2
08:29 77.7 °F 70.7 °F 30.21 in Calm     79% 0.00 in 360.00 W/m2
08:34 78.4 °F 70.6 °F 30.21 in Calm     77% 0.00 in 366.00 W/m2
08:39 78.7 °F 68.5 °F 30.21 in WSW 1.2 mph 0.5 mph 71% 0.00 in 380.00 W/m2
08:44 79.1 °F 68.1 °F 30.21 in WSW 4.6 mph 1.8 mph 69% 0.00 in 383.00 W/m2
08:49 79.3 °F 67.8 °F 30.21 in SW 3.5 mph 0.5 mph 68% 0.00 in 403.00 W/m2
08:54 79.8 °F 68.3 °F 30.21 in South 3.5 mph 0.1 mph 68% 0.00 in 418.00 W/m2
08:59 80.4 °F 68.0 °F 30.21 in WSW 3.5 mph 1.1 mph 66% 0.00 in 436.00 W/m2
09:04 80.5 °F 68.1 °F 30.21 in SW 4.6 mph   66% 0.00 in 468.00 W/m2
09:09 80.6 °F 67.7 °F 30.21 in WSW 3.5 mph 0.1 mph 65% 0.00 in 582.00 W/m2
09:14 80.7 °F 67.4 °F 30.21 in SW 3.5 mph 1.5 mph 64% 0.00 in 468.00 W/m2
09:19 80.7 °F 67.8 °F 30.21 in SW 4.6 mph 0.5 mph 65% 0.00 in 578.00 W/m2
09:24 81.1 °F 68.7 °F 30.21 in West 5.0 mph 0.6 mph 66% 0.00 in 589.00 W/m2
09:29 81.3 °F 68.0 °F 30.20 in SW 8.1 mph 5.6 mph 64% 0.00 in 615.00 W/m2
09:34 81.5 °F 68.1 °F 30.20 in West 7.0 mph 2.8 mph 64% 0.00 in 615.00 W/m2
09:39 82.0 °F 68.6 °F 30.20 in SSW 5.8 mph 2.2 mph 64% 0.00 in 626.00 W/m2
09:44 82.2 °F 68.8 °F 30.20 in SW 5.8 mph 0.2 mph 64% 0.00 in 649.00 W/m2
09:49 82.2 °F 69.7 °F 30.20 in SSW 1.2 mph 1.6 mph 66% 0.00 in 659.00 W/m2
09:54 82.5 °F 69.5 °F 30.19 in WSW 10.0 mph 4.9 mph 65% 0.00 in 673.00 W/m2
09:59 82.6 °F 70.5 °F 30.20 in West 3.5 mph 1.9 mph 67% 0.00 in 680.00 W/m2
10:04 82.8 °F 70.3 °F 30.19 in North 6.0 mph 3.2 mph 66% 0.00 in 691.00 W/m2
10:09 82.7 °F 70.6 °F 30.19 in West 6.9 mph 1.5 mph 67% 0.00 in 705.00 W/m2
10:14 82.8 °F 70.3 °F 30.19 in WSW 5.8 mph 0.3 mph 66% 0.00 in 717.00 W/m2
10:19 83.1 °F 70.1 °F 30.19 in WSW 6.9 mph 0.7 mph 65% 0.00 in 724.00 W/m2
10:24 83.4 °F 71.3 °F 30.19 in WSW 3.5 mph   67% 0.00 in 738.00 W/m2
10:29 83.8 °F 70.8 °F 30.19 in SSW 8.1 mph 0.6 mph 65% 0.00 in 745.00 W/m2
10:34 83.9 °F 70.9 °F 30.19 in Calm     65% 0.00 in 761.00 W/m2
10:39 84.1 °F 70.6 °F 30.19 in WSW 6.9 mph 4.7 mph 64% 0.00 in 758.00 W/m2
10:44 84.0 °F 70.0 °F 30.19 in WNW 3.5 mph   63% 0.00 in 800.00 W/m2
10:49 84.2 °F 70.2 °F 30.19 in SW 8.0 mph 6.0 mph 63% 0.00 in 775.00 W/m2
10:54 84.3 °F 70.3 °F 30.19 in SW 7.0 mph 4.2 mph 63% 0.00 in 795.00 W/m2
10:59 84.3 °F 70.3 °F 30.19 in NNW 6.0 mph 2.6 mph 63% 0.00 in 756.00 W/m2
11:04 84.4 °F 70.4 °F 30.19 in WSW 5.8 mph 4.5 mph 63% 0.00 in 236.00 W/m2
11:09 84.2 °F 70.2 °F 30.19 in WSW 5.0 mph 3.0 mph 63% 0.00 in 735.00 W/m2
11:14 84.5 °F 70.5 °F 30.19 in WSW 6.9 mph 4.8 mph 63% 0.00 in 719.00 W/m2
11:19 84.9 °F 70.4 °F 30.19 in WSW 5.8 mph 1.3 mph 62% 0.00 in 733.00 W/m2
11:24 85.3 °F 70.8 °F 30.19 in West 5.8 mph   62% 0.00 in 761.00 W/m2
11:29 85.6 °F 70.6 °F 30.18 in North 8.1 mph 2.3 mph 61% 0.00 in 793.00 W/m2
11:34 85.6 °F 71.1 °F 30.19 in Calm   0.1 mph 62% 0.00 in 837.00 W/m2
11:39 85.6 °F 70.1 °F 30.19 in West 4.6 mph 0.3 mph 60% 0.00 in 802.00 W/m2
11:44 85.9 °F 69.9 °F 30.19 in West 5.8 mph 1.2 mph 59% 0.00 in 744.00 W/m2
11:49 86.1 °F 71.6 °F 30.19 in NW 5.8 mph 0.3 mph 62% 0.00 in 893.00 W/m2
11:54 86.0 °F 69.5 °F 30.19 in West 10.4 mph 2.9 mph 58% 0.00 in 940.00 W/m2
11:59 86.1 °F 70.6 °F 30.19 in NW 3.5 mph 1.4 mph 60% 0.00 in 905.00 W/m2
12:04 86.5 °F 71.0 °F 30.19 in North 8.1 mph 6.3 mph 60% 0.00 in 986.00 W/m2
12:09 86.7 °F 70.7 °F 30.19 in North 8.0 mph 5.2 mph 59% 0.00 in 1013.00 W/m2
12:14 86.9 °F 70.8 °F 30.18 in NW 6.0 mph 1.2 mph 59% 0.00 in 1000.00 W/m2
12:19 87.1 °F 70.5 °F 30.18 in WSW 5.8 mph 4.3 mph 58% 0.00 in 1009.00 W/m2
12:24 87.1 °F 71.0 °F 30.18 in West 8.1 mph 2.7 mph 59% 0.00 in 1058.00 W/m2
12:29 87.2 °F 70.1 °F 30.18 in West 6.0 mph 0.6 mph 57% 0.00 in 997.00 W/m2
12:34 87.2 °F 70.1 °F 30.18 in WSW 12.7 mph 5.4 mph 57% 0.00 in 995.00 W/m2
12:39 87.4 °F 69.8 °F 30.18 in NNW 4.6 mph   56% 0.00 in 200.00 W/m2
12:44 87.5 °F 70.4 °F 30.18 in NW 10.0 mph 4.3 mph 57% 0.00 in 1058.00 W/m2
12:49 87.3 °F 69.7 °F 30.18 in WSW 7.0 mph 3.7 mph 56% 0.00 in 227.00 W/m2
12:54 87.2 °F 70.1 °F 30.18 in WSW 9.0 mph 1.3 mph 57% 0.00 in 1078.00 W/m2
12:59 87.3 °F 69.7 °F 30.18 in Calm     56% 0.00 in 408.00 W/m2
13:04 87.3 °F 70.2 °F 30.17 in WNW 10.4 mph 4.6 mph 57% 0.00 in 408.00 W/m2
13:09 87.6 °F 70.5 °F 30.17 in WSW 9.2 mph 1.5 mph 57% 0.00 in 998.00 W/m2
13:14 87.8 °F 70.7 °F 30.17 in WNW 8.1 mph 2.2 mph 57% 0.00 in 1020.00 W/m2
13:19 87.6 °F 70.5 °F 30.17 in North 7.0 mph 0.7 mph 57% 0.00 in 1032.00 W/m2
13:24 88.0 °F 69.8 °F 30.17 in North 9.2 mph   55% 0.00 in 243.00 W/m2
13:29 87.8 °F 70.1 °F 30.17 in WNW 8.1 mph 1.2 mph 56% 0.00 in 1025.00 W/m2
13:34 87.7 °F 70.1 °F 30.17 in WNW 5.8 mph 3.2 mph 56% 0.00 in 1025.00 W/m2
13:39 87.9 °F 70.8 °F 30.17 in WNW 8.1 mph 3.4 mph 57% 0.00 in 1011.00 W/m2
13:44 87.7 °F 70.6 °F 30.16 in North 5.8 mph 0.7 mph 57% 0.00 in 313.00 W/m2
13:49 87.5 °F 70.4 °F 30.16 in NW 3.5 mph 0.6 mph 57% 0.00 in 271.00 W/m2
13:54 87.7 °F 70.6 °F 30.16 in West 6.9 mph 2.7 mph 57% 0.00 in 981.00 W/m2
13:59 88.1 °F 70.9 °F 30.16 in WNW 5.0 mph 2.5 mph 57% 0.00 in 967.00 W/m2
14:04 88.3 °F 70.6 °F 30.16 in WSW 13.0 mph 8.4 mph 56% 0.00 in 656.00 W/m2
14:09 88.3 °F 70.6 °F 30.16 in WSW 9.2 mph 1.8 mph 56% 0.00 in 844.00 W/m2
14:14 88.1 °F 70.4 °F 30.15 in Calm     56% 0.00 in 925.00 W/m2
14:19 88.4 °F 70.7 °F 30.15 in North 6.9 mph 1.8 mph 56% 0.00 in 819.00 W/m2
14:24 88.5 °F 70.3 °F 30.15 in SW 11.5 mph 2.1 mph 55% 0.00 in 875.00 W/m2
14:29 88.4 °F 70.2 °F 30.15 in WSW 12.7 mph 3.5 mph 55% 0.00 in 874.00 W/m2
14:34 88.4 °F 70.7 °F 30.14 in WNW 4.6 mph 0.7 mph 56% 0.00 in 872.00 W/m2
14:39 88.7 °F 70.5 °F 30.14 in WNW 10.4 mph 5.3 mph 55% 0.00 in 863.00 W/m2
14:44 88.9 °F 70.6 °F 30.14 in North 2.3 mph 0.7 mph 55% 0.00 in 840.00 W/m2
14:49 89.2 °F 70.9 °F 30.14 in WNW 9.2 mph 2.5 mph 55% 0.00 in 847.00 W/m2
14:54 89.6 °F 70.8 °F 30.14 in WSW 8.1 mph 6.6 mph 54% 0.00 in 833.00 W/m2
14:59 89.5 °F 71.2 °F 30.14 in NW 5.8 mph 1.5 mph 55% 0.00 in 835.00 W/m2
15:04 89.7 °F 70.8 °F 30.13 in North 8.0 mph 3.4 mph 54% 0.00 in 828.00 W/m2
15:09 89.6 °F 70.8 °F 30.13 in NW 4.6 mph 2.4 mph 54% 0.00 in 784.00 W/m2
15:14 90.0 °F 71.1 °F 30.13 in North 2.3 mph 1.1 mph 54% 0.00 in 791.00 W/m2
15:19 90.0 °F 71.7 °F 30.13 in WNW 3.5 mph 0.1 mph 55% 0.00 in 780.00 W/m2
15:24 90.0 °F 71.1 °F 30.13 in SW 8.1 mph 8.3 mph 54% 0.00 in 763.00 W/m2
15:29 89.5 °F 71.7 °F 30.13 in North 4.0 mph 1.4 mph 56% 0.00 in 758.00 W/m2
15:34 89.6 °F 70.8 °F 30.12 in WNW 10.4 mph 3.3 mph 54% 0.00 in 742.00 W/m2
15:39 89.6 °F 71.3 °F 30.12 in West 9.2 mph 2.8 mph 55% 0.00 in 742.00 W/m2
15:44 89.9 °F 72.1 °F 30.12 in WSW 3.5 mph 0.7 mph 56% 0.00 in 738.00 W/m2
15:49 90.1 °F 72.3 °F 30.12 in North 6.9 mph 2.2 mph 56% 0.00 in 719.00 W/m2
15:54 90.2 °F 71.8 °F 30.12 in West 6.9 mph 3.8 mph 55% 0.00 in 749.00 W/m2
15:59 90.4 °F 72.6 °F 30.12 in North 6.0 mph 1.8 mph 56% 0.00 in 703.00 W/m2
16:04 90.6 °F 72.2 °F 30.11 in North 3.5 mph 0.8 mph 55% 0.00 in 684.00 W/m2
16:09 90.4 °F 72.0 °F 30.11 in West 11.5 mph 4.2 mph 55% 0.00 in 675.00 W/m2
16:14 89.7 °F 71.9 °F 30.11 in North 5.8 mph 3.9 mph 56% 0.00 in 679.00 W/m2
16:19 89.7 °F 71.9 °F 30.11 in West 11.5 mph 3.0 mph 56% 0.00 in 643.00 W/m2
16:24 89.9 °F 71.6 °F 30.11 in West 5.0 mph 2.6 mph 55% 0.00 in 643.00 W/m2
16:29 90.0 °F 72.2 °F 30.11 in SW 11.5 mph 3.5 mph 56% 0.00 in 636.00 W/m2
16:34 89.6 °F 72.3 °F 30.11 in North 9.0 mph 3.5 mph 57% 0.00 in 624.00 W/m2
16:39 89.6 °F 72.3 °F 30.11 in North 8.1 mph 4.6 mph 57% 0.00 in 584.00 W/m2
16:44 89.4 °F 71.6 °F 30.11 in North 11.5 mph 2.6 mph 56% 0.00 in 582.00 W/m2
16:49 89.5 °F 72.3 °F 30.11 in WSW 6.9 mph 2.0 mph 57% 0.00 in 575.00 W/m2
16:54 89.7 °F 72.4 °F 30.11 in WSW 8.1 mph 0.7 mph 57% 0.00 in 578.00 W/m2
16:59 89.4 °F 72.7 °F 30.11 in West 8.1 mph 1.4 mph 58% 0.00 in 563.00 W/m2
17:04 89.4 °F 72.7 °F 30.10 in SW 2.3 mph 0.2 mph 58% 0.00 in 557.00 W/m2
17:09 90.1 °F 73.3 °F 30.11 in North 6.0 mph 4.5 mph 58% 0.00 in 571.00 W/m2
17:14 89.8 °F 73.0 °F 30.10 in WNW 4.6 mph 0.7 mph 58% 0.00 in 526.00 W/m2
17:19 90.0 °F 73.2 °F 30.10 in WNW 5.8 mph 2.5 mph 58% 0.00 in 489.00 W/m2
17:24 90.1 °F 72.8 °F 30.10 in North 8.1 mph 3.5 mph 57% 0.00 in 473.00 W/m2
17:29 89.8 °F 72.5 °F 30.10 in WNW 5.8 mph 4.9 mph 57% 0.00 in 380.00 W/m2
17:34 89.5 °F 72.8 °F 30.10 in WSW 5.8 mph 2.9 mph 58% 0.00 in 425.00 W/m2
17:39 89.3 °F 72.6 °F 30.09 in SW 6.9 mph 2.1 mph 58% 0.00 in 411.00 W/m2
17:44 89.1 °F 72.4 °F 30.09 in SW 11.5 mph 7.2 mph 58% 0.00 in 403.00 W/m2
17:49 88.9 °F 72.7 °F 30.09 in North 3.5 mph 0.1 mph 59% 0.00 in 408.00 W/m2
17:54 89.2 °F 73.0 °F 30.09 in SW 6.9 mph 1.3 mph 59% 0.00 in 367.00 W/m2
17:59 89.2 °F 73.0 °F 30.09 in SSW 6.0 mph 0.8 mph 59% 0.00 in 346.00 W/m2
18:04 89.2 °F 73.0 °F 30.09 in West 10.4 mph 3.9 mph 59% 0.00 in 339.00 W/m2
18:09 89.0 °F 73.3 °F 30.09 in SW 6.9 mph 1.7 mph 60% 0.00 in 325.00 W/m2
18:14 89.0 °F 73.3 °F 30.09 in West 3.5 mph 0.2 mph 60% 0.00 in 306.00 W/m2
18:19 89.0 °F 73.3 °F 30.09 in WSW 10.4 mph 2.2 mph 60% 0.00 in 299.00 W/m2
18:24 88.8 °F 73.6 °F 30.09 in North 4.6 mph 0.9 mph 61% 0.00 in 285.00 W/m2
18:29 88.9 °F 73.7 °F 30.08 in SW 1.2 mph   61% 0.00 in 258.00 W/m2
18:34 88.8 °F 73.1 °F 30.08 in Calm   0.7 mph 60% 0.00 in 248.00 W/m2
18:39 88.7 °F 73.0 °F 30.08 in North 8.1 mph 4.8 mph 60% 0.00 in 236.00 W/m2
18:44 88.3 °F 73.1 °F 30.08 in North 2.3 mph 2.5 mph 61% 0.00 in 213.00 W/m2
18:49 88.1 °F 73.0 °F 30.08 in WSW 8.0 mph 6.1 mph 61% 0.00 in 195.00 W/m2
18:54 87.7 °F 73.1 °F 30.08 in West 5.8 mph 0.4 mph 62% 0.00 in 174.00 W/m2
18:59 87.6 °F 73.0 °F 30.08 in North 5.8 mph   62% 0.00 in 158.00 W/m2
19:04 87.6 °F 73.4 °F 30.08 in Calm     63% 0.00 in 142.00 W/m2
19:09 87.5 °F 73.3 °F 30.08 in SW 7.0 mph 2.2 mph 63% 0.00 in 113.00 W/m2
19:14 87.3 °F 73.2 °F 30.08 in WSW 3.5 mph   63% 0.00 in 114.00 W/m2
19:19 87.1 °F 73.4 °F 30.08 in Calm   0.1 mph 64% 0.00 in 104.00 W/m2
19:24 87.0 °F 73.3 °F 30.08 in Calm   1.3 mph 64% 0.00 in 77.00 W/m2
19:29 86.7 °F 73.5 °F 30.08 in Calm     65% 0.00 in 32.00 W/m2
19:34 86.4 °F 73.2 °F 30.08 in North 1.0 mph 0.6 mph 65% 0.00 in 26.00 W/m2
19:39 86.2 °F 73.5 °F 30.09 in West 4.6 mph 2.4 mph 66% 0.00 in 28.00 W/m2
19:44 86.0 °F 73.3 °F 30.09 in West 1.2 mph   66% 0.00 in 28.00 W/m2
19:49 85.9 °F 73.2 °F 30.09 in WSW 4.6 mph   66% 0.00 in 26.00 W/m2
19:54 85.8 °F 73.6 °F 30.09 in West 2.3 mph   67% 0.00 in 23.00 W/m2
19:59 85.7 °F 73.5 °F 30.09 in Calm     67% 0.00 in 19.00 W/m2
20:04 85.5 °F 73.3 °F 30.09 in Calm     67% 0.00 in 16.00 W/m2
20:09 85.3 °F 73.5 °F 30.08 in Calm     68% 0.00 in 12.00 W/m2
20:14 85.2 °F 73.4 °F 30.08 in Calm     68% 0.00 in 9.00 W/m2
20:19 85.0 °F 73.7 °F 30.08 in Calm     69% 0.00 in 5.00 W/m2
20:24 84.9 °F 73.6 °F 30.08 in Calm     69% 0.00 in 0.00 W/m2
20:29 84.8 °F 73.5 °F 30.08 in WSW 3.0 mph 0.3 mph 69% 0.00 in 0.00 W/m2
20:34 84.6 °F 73.3 °F 30.08 in WSW 1.2 mph 0.1 mph 69% 0.00 in 0.00 W/m2
20:39 84.5 °F 73.6 °F 30.08 in Calm     70% 0.00 in 0.00 W/m2
20:44 84.3 °F 73.4 °F 30.08 in Calm     70% 0.00 in 0.00 W/m2
20:49 84.2 °F 73.8 °F 30.08 in WSW 1.2 mph   71% 0.00 in 0.00 W/m2
20:54 84.0 °F 73.6 °F 30.08 in Calm     71% 0.00 in 0.00 W/m2
20:59 83.8 °F 73.8 °F 30.08 in Calm     72% 0.00 in 0.00 W/m2
21:04 83.6 °F 73.6 °F 30.08 in Calm     72% 0.00 in 0.00 W/m2
21:09 83.4 °F 73.4 °F 30.08 in Calm     72% 0.00 in 0.00 W/m2
21:14 83.1 °F 73.5 °F 30.08 in Calm     73% 0.00 in 0.00 W/m2
21:19 82.9 °F 73.8 °F 30.08 in Calm     74% 0.00 in 0.00 W/m2
21:24 82.7 °F 73.6 °F 30.08 in Calm     74% 0.00 in 0.00 W/m2
21:29 82.3 °F 73.6 °F 30.08 in Calm     75% 0.00 in 0.00 W/m2
21:34 81.8 °F 73.5 °F 30.08 in Calm     76% 0.00 in 0.00 W/m2
21:39 80.8 °F 72.9 °F 30.09 in Calm     77% 0.00 in 0.00 W/m2
21:44 79.9 °F 72.8 °F 30.08 in Calm     79% 0.00 in 0.00 W/m2
21:49 79.2 °F 72.9 °F 30.09 in Calm     81% 0.00 in 0.00 W/m2
21:54 78.7 °F 72.7 °F 30.09 in Calm     82% 0.00 in 0.00 W/m2
21:59 78.2 °F 72.6 °F 30.09 in Calm     83% 0.00 in 0.00 W/m2
22:04 78.0 °F 72.8 °F 30.09 in Calm     84% 0.00 in 0.00 W/m2
22:09 77.8 °F 72.2 °F 30.09 in Calm     83% 0.00 in 0.00 W/m2
22:14 77.5 °F 72.6 °F 30.09 in Calm     85% 0.00 in 0.00 W/m2
22:19 77.4 °F 72.5 °F 30.09 in Calm     85% 0.00 in 0.00 W/m2
22:24 77.3 °F 72.4 °F 30.09 in Calm     85% 0.00 in 0.00 W/m2
22:29 77.3 °F 72.8 °F 30.09 in Calm     86% 0.00 in 0.00 W/m2
22:34 77.4 °F 72.9 °F 30.09 in Calm     86% 0.00 in 0.00 W/m2
22:39 77.7 °F 73.5 °F 30.08 in Calm     87% 0.00 in 0.00 W/m2
22:44 78.1 °F 73.6 °F 30.09 in Calm     86% 0.00 in 0.00 W/m2
22:49 78.5 °F 74.0 °F 30.08 in Calm     86% 0.00 in 0.00 W/m2
22:54 78.7 °F 73.8 °F 30.08 in Calm     85% 0.00 in 0.00 W/m2
22:59 78.9 °F 73.7 °F 30.08 in Calm     84% 0.00 in 0.00 W/m2
23:04 78.6 °F 73.0 °F 30.08 in Calm     83% 0.00 in 0.00 W/m2
23:09 78.0 °F 72.8 °F 30.08 in Calm     84% 0.00 in 0.00 W/m2
23:14 77.5 °F 72.6 °F 30.08 in Calm     85% 0.00 in 0.00 W/m2
23:19 77.1 °F 72.2 °F 30.08 in Calm     85% 0.00 in 0.00 W/m2
23:24 76.7 °F 72.2 °F 30.08 in Calm     86% 0.00 in 0.00 W/m2
23:29 76.5 °F 72.3 °F 30.08 in Calm     87% 0.00 in 0.00 W/m2
23:34 76.5 °F 72.7 °F 30.08 in Calm     88% 0.00 in 0.00 W/m2
23:39 76.5 °F 72.7 °F 30.08 in Calm     88% 0.00 in 0.00 W/m2
23:44 76.6 °F 72.8 °F 30.08 in Calm     88% 0.00 in 0.00 W/m2
23:49 76.7 °F 72.9 °F 30.08 in Calm     88% 0.00 in 0.00 W/m2
23:54 77.2 °F 73.4 °F 30.08 in Calm     88% 0.00 in 0.00 W/m2
23:59 77.6 °F 73.4 °F 30.08 in North 3.0 mph 0.5 mph 87% 0.00 in 0.00 W/m2
Bourbonnais, Illinois, USA
Compliments of Weather Underground - 4 mb